createdAt,value
2019-03-19T00:00:33.160Z,12.00
2019-03-19T00:03:01.573Z,9.30
2019-03-19T00:05:30.009Z,10.23
2019-03-19T00:07:58.507Z,10.83
2019-03-19T00:10:26.951Z,10.47
2019-03-19T00:12:55.365Z,9.37
2019-03-19T00:15:23.796Z,12.00
2019-03-19T00:17:52.208Z,9.60
2019-03-19T00:20:20.628Z,11.23
2019-03-19T00:22:49.057Z,11.63
2019-03-19T00:25:17.472Z,11.73
2019-03-19T00:27:45.889Z,11.20
2019-03-19T00:30:15.547Z,8.77
2019-03-19T00:32:43.960Z,11.47
2019-03-19T00:35:12.448Z,10.37
2019-03-19T00:37:40.869Z,12.17
2019-03-19T00:40:13.604Z,10.33
2019-03-19T00:42:42.119Z,10.50
2019-03-19T00:45:12.178Z,11.10
2019-03-19T00:47:40.926Z,10.13
2019-03-19T00:50:10.088Z,10.00
2019-03-19T00:52:38.496Z,12.37
2019-03-19T00:55:07.568Z,11.07
2019-03-19T00:57:35.986Z,10.20
2019-03-19T01:00:07.488Z,10.03
2019-03-19T01:02:35.915Z,10.23
2019-03-19T01:05:04.989Z,8.70
2019-03-19T01:07:33.692Z,8.83
2019-03-19T01:10:02.118Z,10.37
2019-03-19T01:12:30.536Z,11.07
2019-03-19T01:14:58.626Z,9.93
2019-03-19T01:17:27.029Z,9.53
2019-03-19T01:19:55.116Z,9.43
2019-03-19T01:22:23.205Z,9.60
2019-03-19T01:24:51.933Z,11.30
2019-03-19T01:27:20.004Z,8.60
2019-03-19T01:29:48.093Z,8.50
2019-03-19T01:32:16.492Z,9.23
2019-03-19T01:34:45.237Z,9.97
2019-03-19T01:37:13.649Z,12.47
2019-03-19T01:39:42.056Z,9.20
2019-03-19T01:42:10.138Z,9.90
2019-03-19T01:44:38.557Z,10.53
2019-03-19T01:47:07.002Z,10.03
2019-03-19T01:49:35.141Z,10.87
2019-03-19T01:52:03.219Z,12.27
2019-03-19T01:54:31.326Z,10.43
2019-03-19T01:56:59.745Z,12.13
2019-03-19T01:59:27.824Z,9.37
2019-03-19T02:01:56.240Z,9.70
2019-03-19T02:04:24.663Z,10.90
2019-03-19T02:06:53.089Z,9.97
2019-03-19T02:09:21.173Z,11.67
2019-03-19T02:11:49.603Z,10.27
2019-03-19T02:14:18.013Z,10.03
2019-03-19T02:16:46.119Z,10.17
2019-03-19T02:19:14.188Z,12.13
2019-03-19T02:21:42.616Z,10.47
2019-03-19T02:24:11.033Z,8.63
2019-03-19T02:26:39.452Z,9.87
2019-03-19T02:29:07.861Z,15.70
2019-03-19T02:31:36.290Z,9.37
2019-03-19T02:34:04.713Z,9.57
2019-03-19T02:36:33.126Z,8.20
2019-03-19T02:39:01.550Z,9.23
2019-03-19T02:41:30.030Z,9.80
2019-03-19T02:43:58.443Z,9.33
2019-03-19T02:46:26.524Z,9.20
2019-03-19T02:48:54.935Z,10.13
2019-03-19T02:51:23.020Z,9.70
2019-03-19T02:53:51.161Z,10.83
2019-03-19T02:56:31.735Z,12.73
2019-03-19T02:58:49.109Z,9.37
2019-03-19T03:01:17.538Z,10.00
2019-03-19T03:03:46.269Z,9.73
2019-03-19T03:06:14.687Z,8.90
2019-03-19T03:08:42.789Z,9.80
2019-03-19T03:11:11.261Z,9.07
2019-03-19T03:13:39.680Z,9.87
2019-03-19T03:16:08.178Z,8.80
2019-03-19T03:18:36.581Z,12.90
2019-03-19T03:21:05.000Z,8.23
2019-03-19T03:23:33.087Z,12.20
2019-03-19T03:26:01.508Z,11.30
2019-03-19T03:28:29.588Z,10.47
2019-03-19T03:30:58.014Z,9.63
2019-03-19T03:33:26.427Z,7.93
2019-03-19T03:36:14.173Z,9.00
2019-03-19T03:38:42.593Z,10.43
2019-03-19T03:41:11.017Z,9.90
2019-03-19T03:43:39.430Z,8.77
2019-03-19T03:46:07.860Z,9.50
2019-03-19T03:48:35.951Z,12.23
2019-03-19T03:51:04.363Z,9.67
2019-03-19T03:53:32.886Z,9.23
2019-03-19T03:56:01.277Z,9.77
2019-03-19T03:58:29.376Z,11.30
2019-03-19T04:00:57.452Z,8.33
2019-03-19T04:03:25.878Z,11.83
2019-03-19T04:05:54.301Z,11.97
2019-03-19T04:08:22.718Z,9.90
2019-03-19T04:10:51.138Z,8.10
2019-03-19T04:13:19.236Z,10.33
2019-03-19T04:15:47.741Z,9.00
2019-03-19T04:18:16.148Z,10.67
2019-03-19T04:20:44.563Z,10.23
2019-03-19T04:23:12.986Z,10.00
2019-03-19T04:25:41.405Z,10.00
2019-03-19T04:28:09.496Z,7.67
2019-03-19T04:30:37.926Z,9.30
2019-03-19T04:33:06.352Z,10.87
2019-03-19T04:35:34.774Z,10.93
2019-03-19T04:38:03.262Z,10.23
2019-03-19T04:40:31.668Z,8.70
2019-03-19T04:43:00.088Z,10.57
2019-03-19T04:45:28.500Z,10.70
2019-03-19T04:47:56.934Z,13.60
2019-03-19T04:50:25.024Z,11.73
2019-03-19T04:52:53.115Z,12.77
2019-03-19T04:55:21.528Z,13.47
2019-03-19T04:57:49.623Z,12.90
2019-03-19T05:00:19.184Z,13.10
2019-03-19T05:02:47.674Z,12.57
2019-03-19T05:05:16.277Z,13.13
2019-03-19T05:07:44.701Z,15.67
2019-03-19T05:10:15.830Z,12.83
2019-03-19T05:12:44.248Z,11.53
2019-03-19T05:15:12.729Z,13.30
2019-03-19T05:17:40.816Z,13.03
2019-03-19T05:20:09.876Z,14.97
2019-03-19T05:22:37.968Z,10.57
2019-03-19T05:25:07.625Z,12.37
2019-03-19T05:27:37.756Z,13.53
2019-03-19T05:30:11.818Z,14.33
2019-03-19T05:32:40.234Z,9.87
2019-03-19T05:35:09.425Z,10.53
2019-03-19T05:37:37.836Z,10.03
2019-03-19T05:40:14.126Z,14.53
2019-03-19T05:42:42.536Z,15.30
2019-03-19T05:45:11.202Z,12.00
2019-03-19T05:47:40.710Z,13.50
2019-03-19T05:50:12.661Z,16.73
2019-03-19T05:52:41.401Z,11.23
2019-03-19T05:55:10.567Z,10.67
2019-03-19T05:57:48.896Z,10.27
2019-03-19T06:00:17.545Z,9.57
2019-03-19T06:02:45.952Z,11.97
2019-03-19T06:05:14.382Z,11.80
2019-03-19T06:07:42.789Z,10.43
2019-03-19T06:10:14.436Z,9.10
2019-03-19T06:12:42.875Z,11.43
2019-03-19T06:15:14.127Z,10.27
2019-03-19T06:17:42.598Z,8.10
2019-03-19T06:20:14.096Z,10.03
2019-03-19T06:22:42.500Z,9.63
2019-03-19T06:25:11.911Z,10.73
2019-03-19T06:27:40.030Z,9.00
2019-03-19T06:30:18.321Z,8.00
2019-03-19T06:32:46.733Z,9.17
2019-03-19T06:35:34.498Z,12.77
2019-03-19T06:38:02.937Z,10.17
2019-03-19T06:40:31.359Z,10.80
2019-03-19T06:42:59.768Z,10.50
2019-03-19T06:45:28.194Z,21.83
2019-03-19T06:47:56.276Z,11.20
2019-03-19T06:50:24.700Z,11.20
2019-03-19T06:52:53.114Z,9.77
2019-03-19T06:55:21.607Z,8.73
2019-03-19T06:57:49.686Z,9.03
2019-03-19T07:00:24.642Z,9.47
2019-03-19T07:02:53.121Z,10.50
2019-03-19T07:05:21.874Z,8.47
2019-03-19T07:07:50.290Z,8.93
2019-03-19T07:10:19.651Z,8.37
2019-03-19T07:12:48.060Z,10.40
2019-03-19T07:15:18.593Z,8.20
2019-03-19T07:17:46.744Z,10.33
2019-03-19T07:20:15.613Z,9.17
2019-03-19T07:22:44.033Z,8.43
2019-03-19T07:25:12.449Z,10.87
2019-03-19T07:27:40.873Z,9.43
2019-03-19T07:30:18.415Z,10.23
2019-03-19T07:32:46.817Z,9.80
2019-03-19T07:35:15.179Z,8.30
2019-03-19T07:37:43.829Z,7.90
2019-03-19T07:40:13.691Z,7.93
2019-03-19T07:42:42.171Z,8.73
2019-03-19T07:45:24.491Z,8.37
2019-03-19T07:47:52.569Z,10.17
2019-03-19T07:50:22.133Z,8.97
2019-03-19T07:52:50.540Z,7.40
2019-03-19T07:55:19.024Z,14.67
2019-03-19T07:57:47.773Z,8.40
2019-03-19T08:00:18.522Z,12.40
2019-03-19T08:02:46.933Z,7.57
2019-03-19T08:05:15.354Z,10.40
2019-03-19T08:07:43.765Z,8.97
2019-03-19T08:10:14.391Z,8.97
2019-03-19T08:12:42.472Z,9.53
2019-03-19T08:15:35.005Z,7.57
2019-03-19T08:18:03.095Z,10.30
2019-03-19T08:20:31.517Z,9.20
2019-03-19T08:22:59.605Z,11.47
2019-03-19T08:25:28.025Z,9.60
2019-03-19T08:27:56.113Z,11.17
2019-03-19T08:30:26.656Z,8.90
2019-03-19T08:32:55.060Z,9.67
2019-03-19T08:35:23.491Z,10.97
2019-03-19T08:37:51.900Z,10.73
2019-03-19T08:40:21.129Z,9.00
2019-03-19T08:42:49.602Z,10.00
2019-03-19T08:45:19.566Z,10.97
2019-03-19T08:47:47.994Z,12.00
2019-03-19T08:50:24.000Z,11.43
2019-03-19T08:52:54.220Z,13.03
2019-03-19T08:55:22.225Z,12.97
2019-03-19T08:57:50.654Z,12.10
2019-03-19T09:00:23.276Z,12.47
2019-03-19T09:02:51.725Z,12.07
2019-03-19T09:05:20.113Z,10.37
2019-03-19T09:07:48.532Z,12.70
2019-03-19T09:10:19.056Z,10.23
2019-03-19T09:12:48.750Z,10.10
2019-03-19T09:15:17.776Z,9.27
2019-03-19T09:17:46.210Z,10.40
2019-03-19T09:20:14.857Z,10.70
2019-03-19T09:22:43.276Z,10.20
2019-03-19T09:25:12.153Z,8.80
2019-03-19T09:27:40.565Z,10.97
2019-03-19T09:30:14.627Z,11.43
2019-03-19T09:32:43.043Z,9.93
2019-03-19T09:35:11.459Z,8.87
2019-03-19T09:37:44.432Z,11.17
2019-03-19T09:40:11.249Z,11.00
2019-03-19T09:42:39.672Z,12.00
2019-03-19T09:45:27.098Z,10.40
2019-03-19T09:47:55.183Z,9.97
2019-03-19T09:50:24.835Z,8.47
2019-03-19T09:52:53.590Z,11.23
2019-03-19T09:55:21.740Z,11.30
2019-03-19T09:57:49.835Z,9.77
2019-03-19T10:00:39.096Z,9.63
2019-03-19T10:03:07.509Z,11.10
2019-03-19T10:05:35.917Z,11.30
2019-03-19T10:08:04.408Z,11.07
2019-03-19T10:10:32.894Z,9.90
2019-03-19T10:13:01.069Z,7.83
2019-03-19T10:15:29.148Z,7.70
2019-03-19T10:17:57.237Z,9.87
2019-03-19T10:20:25.481Z,8.27
2019-03-19T10:22:53.573Z,10.30
2019-03-19T10:25:21.653Z,9.67
2019-03-19T10:27:49.734Z,9.57
2019-03-19T10:30:21.225Z,9.43
2019-03-19T10:32:49.974Z,9.93
2019-03-19T10:35:18.525Z,11.27
2019-03-19T10:37:47.112Z,14.80
2019-03-19T10:40:16.732Z,9.03
2019-03-19T10:42:44.820Z,14.30
2019-03-19T10:45:20.556Z,9.00
2019-03-19T10:47:48.710Z,6.93
2019-03-19T10:50:17.672Z,8.23
2019-03-19T10:52:46.094Z,9.17
2019-03-19T10:55:14.645Z,7.37
2019-03-19T10:57:43.506Z,7.83
2019-03-19T11:00:25.957Z,9.10
2019-03-19T11:02:54.615Z,24.33
2019-03-19T11:05:23.764Z,11.43
2019-03-19T11:07:52.448Z,13.10
2019-03-19T11:10:21.096Z,5.83
2019-03-19T11:12:49.584Z,7.23
2019-03-19T11:15:19.228Z,6.60
2019-03-19T11:17:47.728Z,6.23
2019-03-19T11:20:18.037Z,4.07
2019-03-19T11:22:46.526Z,7.67
2019-03-19T11:25:35.791Z,4.60
2019-03-19T11:28:03.945Z,9.03
2019-03-19T11:30:32.796Z,6.40
2019-03-19T11:33:01.207Z,6.80
2019-03-19T11:35:29.625Z,7.57
2019-03-19T11:37:58.107Z,6.20
2019-03-19T11:40:26.505Z,7.63
2019-03-19T11:42:54.916Z,7.73
2019-03-19T11:45:23.369Z,5.63
2019-03-19T11:47:51.797Z,4.03
2019-03-19T11:50:24.839Z,5.33
2019-03-19T11:52:52.919Z,3.97
2019-03-19T11:55:21.467Z,6.57
2019-03-19T11:57:49.555Z,4.97
2019-03-19T12:00:43.137Z,5.40
2019-03-19T12:03:16.063Z,3.13
2019-03-19T12:05:41.439Z,6.93
2019-03-19T12:08:09.858Z,3.33
2019-03-19T12:10:37.940Z,3.03
2019-03-19T12:13:06.416Z,4.17
2019-03-19T12:15:34.833Z,4.23
2019-03-19T12:18:02.951Z,3.43
2019-03-19T12:20:31.032Z,6.43
2019-03-19T12:22:59.441Z,7.57
2019-03-19T12:25:27.772Z,5.63
2019-03-19T12:27:55.856Z,5.97
2019-03-19T12:30:26.304Z,4.33
2019-03-19T12:32:54.680Z,6.47
2019-03-19T12:35:23.231Z,4.13
2019-03-19T12:37:51.641Z,7.37
2019-03-19T12:40:24.197Z,4.33
2019-03-19T12:42:52.605Z,12.83
2019-03-19T12:45:21.963Z,4.67
2019-03-19T12:47:54.333Z,3.90
2019-03-19T12:50:24.097Z,4.70
2019-03-19T12:52:52.741Z,8.50
2019-03-19T12:55:21.583Z,4.87
2019-03-19T12:57:49.986Z,6.60
2019-03-19T13:00:32.936Z,4.30
2019-03-19T13:02:51.666Z,6.60
2019-03-19T13:05:22.383Z,7.97
2019-03-19T13:07:50.227Z,7.50
2019-03-19T13:10:19.588Z,5.50
2019-03-19T13:12:48.004Z,6.37
2019-03-19T13:15:19.399Z,7.77
2019-03-19T13:17:48.012Z,3.40
2019-03-19T13:20:20.362Z,4.47
2019-03-19T13:22:48.773Z,5.47
2019-03-19T13:25:26.465Z,3.40
2019-03-19T13:27:54.873Z,4.53
2019-03-19T13:30:30.699Z,6.47
2019-03-19T13:32:59.128Z,7.33
2019-03-19T13:35:27.541Z,5.63
2019-03-19T13:37:55.952Z,4.00
2019-03-19T13:40:24.364Z,5.23
2019-03-19T13:42:52.768Z,6.67
2019-03-19T13:45:21.328Z,8.50
2019-03-19T13:47:49.740Z,7.20
2019-03-19T13:50:18.392Z,4.17
2019-03-19T13:52:46.465Z,9.97
2019-03-19T13:55:16.993Z,4.10
2019-03-19T13:57:45.676Z,3.83
2019-03-19T14:00:15.717Z,4.20
2019-03-19T14:02:44.201Z,8.77
2019-03-19T14:05:14.618Z,3.73
2019-03-19T14:07:43.373Z,7.20
2019-03-19T14:10:15.809Z,7.63
2019-03-19T14:12:44.250Z,8.07
2019-03-19T14:15:14.505Z,6.47
2019-03-19T14:17:43.050Z,6.83
2019-03-19T14:20:15.951Z,8.03
2019-03-19T14:22:45.350Z,8.07
2019-03-19T14:25:15.887Z,4.13
2019-03-19T14:27:44.032Z,8.27
2019-03-19T14:30:22.869Z,4.13
2019-03-19T14:32:51.338Z,4.87
2019-03-19T14:35:19.749Z,6.33
2019-03-19T14:37:47.824Z,8.17
2019-03-19T14:40:20.132Z,7.40
2019-03-19T14:42:48.536Z,5.67
2019-03-19T14:45:17.996Z,7.23
2019-03-19T14:47:46.722Z,6.90
2019-03-19T14:50:24.251Z,6.50
2019-03-19T14:52:52.654Z,7.40
2019-03-19T14:55:21.075Z,5.07
2019-03-19T14:58:08.839Z,6.43
2019-03-19T15:00:37.237Z,4.63
2019-03-19T15:03:05.308Z,3.80
2019-03-19T15:05:33.720Z,8.03
2019-03-19T15:08:02.137Z,5.30
2019-03-19T15:10:30.552Z,8.57
2019-03-19T15:12:59.020Z,7.90
2019-03-19T15:15:27.445Z,7.80
2019-03-19T15:17:55.857Z,5.50
2019-03-19T15:20:27.859Z,7.60
2019-03-19T15:22:55.928Z,7.87
2019-03-19T15:25:24.663Z,4.37
2019-03-19T15:27:53.228Z,9.10
2019-03-19T15:30:21.380Z,4.93
2019-03-19T15:32:49.802Z,5.40
2019-03-19T15:35:18.212Z,6.10
2019-03-19T15:37:46.626Z,6.67
2019-03-19T15:40:18.763Z,5.20
2019-03-19T15:42:47.168Z,5.10
2019-03-19T15:45:20.235Z,3.77
2019-03-19T15:47:48.697Z,3.53
2019-03-19T15:50:16.855Z,7.23
2019-03-19T15:52:45.336Z,6.13
2019-03-19T15:55:15.484Z,4.07
2019-03-19T15:57:43.872Z,6.63
2019-03-19T16:00:12.937Z,5.20
2019-03-19T16:02:41.348Z,6.13
2019-03-19T16:05:12.439Z,5.40
2019-03-19T16:07:40.516Z,5.90
2019-03-19T16:10:13.538Z,5.17
2019-03-19T16:12:41.608Z,6.87
2019-03-19T16:15:17.253Z,4.67
2019-03-19T16:17:45.327Z,14.53
2019-03-19T16:20:14.612Z,7.37
2019-03-19T16:22:43.096Z,8.10
2019-03-19T16:25:11.676Z,6.83
2019-03-19T16:27:39.762Z,5.57
2019-03-19T16:30:15.583Z,6.00
2019-03-19T16:32:43.993Z,3.07
2019-03-19T16:35:13.140Z,5.17
2019-03-19T16:37:41.624Z,11.33
2019-03-19T16:40:13.280Z,11.10
2019-03-19T16:42:41.698Z,6.33
2019-03-19T16:45:11.344Z,4.90
2019-03-19T16:47:39.756Z,7.43
2019-03-19T16:50:11.985Z,5.30
2019-03-19T16:52:40.437Z,8.27
2019-03-19T16:55:10.081Z,7.53
2019-03-19T16:57:38.184Z,5.63
2019-03-19T17:00:18.109Z,5.27
2019-03-19T17:02:46.591Z,7.57
2019-03-19T17:05:16.358Z,6.33
2019-03-19T17:07:44.432Z,8.47
2019-03-19T17:10:14.049Z,5.30
2019-03-19T17:12:42.474Z,6.03
2019-03-19T17:15:11.830Z,6.10
2019-03-19T17:17:40.282Z,4.80
2019-03-19T17:20:13.232Z,5.67
2019-03-19T17:22:41.328Z,6.67
2019-03-19T17:25:13.587Z,5.97
2019-03-19T17:27:41.672Z,9.03
2019-03-19T17:30:13.176Z,10.43
2019-03-19T17:32:41.260Z,9.10
2019-03-19T17:35:09.694Z,11.23
2019-03-19T17:37:38.113Z,6.50
2019-03-19T17:40:09.588Z,7.90
2019-03-19T17:42:38.013Z,7.80
2019-03-19T17:45:11.165Z,6.40
2019-03-19T17:47:39.268Z,11.77
2019-03-19T17:50:08.888Z,8.10
2019-03-19T17:52:37.331Z,9.37
2019-03-19T17:55:09.037Z,12.43
2019-03-19T17:57:37.461Z,10.27
2019-03-19T18:00:13.545Z,13.90
2019-03-19T18:02:41.634Z,16.30
2019-03-19T18:05:10.617Z,11.37
2019-03-19T18:07:39.045Z,11.80
2019-03-19T18:10:10.585Z,10.43
2019-03-19T18:12:39.010Z,13.47
2019-03-19T18:15:15.373Z,16.30
2019-03-19T18:17:43.797Z,12.93
2019-03-19T18:20:13.648Z,13.27
2019-03-19T18:22:41.823Z,10.90
2019-03-19T18:25:10.777Z,12.47
2019-03-19T18:27:39.232Z,11.60
2019-03-19T18:30:19.217Z,28.13
2019-03-19T18:32:47.644Z,28.03
2019-03-19T18:35:16.057Z,16.67
2019-03-19T18:37:44.490Z,8.77
2019-03-19T18:40:17.012Z,17.20
2019-03-19T18:42:45.443Z,17.13
2019-03-19T18:47:43.407Z,15.47
2019-03-19T18:50:22.893Z,59.90
2019-03-19T18:52:51.305Z,15.23
2019-03-19T18:55:20.065Z,10.83
2019-03-19T18:57:48.485Z,12.00
2019-03-19T19:00:19.010Z,15.17
2019-03-19T19:02:49.979Z,16.73
2019-03-19T19:05:18.890Z,14.03
2019-03-19T19:07:47.401Z,15.80
2019-03-19T19:10:16.752Z,17.03
2019-03-19T19:12:45.190Z,17.33
2019-03-19T19:15:17.733Z,18.03
2019-03-19T19:17:46.194Z,36.37
2019-03-19T19:20:18.107Z,38.97
2019-03-19T19:22:46.569Z,34.43
2019-03-19T19:25:22.047Z,73.07
2019-03-19T19:27:50.476Z,55.73
2019-03-19T19:30:21.116Z,22.63
2019-03-19T19:33:01.062Z,17.37
2019-03-19T19:35:20.745Z,18.73
2019-03-19T19:37:49.233Z,14.00
2019-03-19T19:40:20.648Z,13.27
2019-03-19T19:42:49.078Z,13.83
2019-03-19T19:45:18.628Z,13.60
2019-03-19T19:47:47.120Z,17.43
2019-03-19T19:50:19.788Z,18.00
2019-03-19T19:52:48.229Z,17.67
2019-03-19T19:55:16.735Z,17.30
2019-03-19T19:57:45.164Z,16.23
2019-03-19T20:00:15.624Z,29.10
2019-03-19T20:02:44.976Z,23.27
2019-03-19T20:05:13.572Z,13.00
2019-03-19T20:07:42.254Z,13.37
2019-03-19T20:10:18.153Z,18.83
2019-03-19T20:12:46.576Z,18.47
2019-03-19T20:15:15.072Z,12.27
2019-03-19T20:17:43.480Z,16.60
2019-03-19T20:20:17.949Z,12.93
2019-03-19T20:22:46.475Z,15.17
2019-03-19T20:25:14.957Z,15.47
2019-03-19T20:27:43.445Z,17.07
2019-03-19T20:30:26.100Z,13.87
2019-03-19T20:32:54.533Z,15.47
2019-03-19T20:35:23.505Z,13.27
2019-03-19T20:37:51.916Z,16.37
2019-03-19T20:40:20.408Z,15.93
2019-03-19T20:42:48.893Z,15.50
2019-03-19T20:45:21.871Z,13.77
2019-03-19T20:47:50.289Z,18.23
2019-03-19T20:50:21.725Z,13.43
2019-03-19T20:52:50.135Z,16.53
2019-03-19T20:55:18.558Z,11.90
2019-03-19T20:57:47.006Z,13.37
2019-03-19T21:00:18.736Z,8.93
2019-03-19T21:02:47.160Z,13.93
2019-03-19T21:05:15.580Z,13.87
2019-03-19T21:07:43.999Z,12.57
2019-03-19T21:10:20.478Z,15.27
2019-03-19T21:12:49.071Z,15.10
2019-03-19T21:15:24.632Z,11.53
2019-03-19T21:17:53.597Z,12.17
2019-03-19T21:20:22.084Z,12.75
2019-03-19T21:22:50.581Z,11.93
2019-03-19T21:25:19.024Z,11.03
2019-03-19T21:27:47.437Z,13.13
2019-03-19T21:30:23.734Z,9.95
2019-03-19T21:32:52.316Z,11.20
2019-03-19T21:35:22.969Z,13.13
2019-03-19T21:37:51.640Z,14.97
2019-03-19T21:40:20.544Z,8.23
2019-03-19T21:42:49.028Z,11.77
2019-03-19T21:45:18.687Z,15.17
2019-03-19T21:47:47.254Z,13.50
2019-03-19T21:50:17.017Z,11.77
2019-03-19T21:52:45.492Z,13.67
2019-03-19T21:55:14.528Z,10.47
2019-03-19T21:57:42.988Z,12.03
2019-03-19T22:00:41.241Z,11.07
2019-03-19T22:03:09.661Z,10.27
2019-03-19T22:05:38.081Z,10.83
2019-03-19T22:08:06.553Z,11.63
2019-03-19T22:10:34.978Z,16.13
2019-03-19T22:13:03.391Z,14.33
2019-03-19T22:15:31.870Z,14.67
2019-03-19T22:18:00.305Z,12.10
2019-03-19T22:20:28.743Z,10.45
2019-03-19T22:22:57.163Z,10.43
2019-03-19T22:25:25.592Z,19.23
2019-03-19T22:27:54.025Z,20.50
2019-03-19T22:30:22.684Z,18.80
2019-03-19T22:32:51.114Z,18.52
2019-03-19T22:35:19.544Z,18.87
2019-03-19T22:37:47.964Z,16.82
2019-03-19T22:40:19.377Z,18.30
2019-03-19T22:42:47.811Z,15.70
2019-03-19T22:45:17.557Z,13.30
2019-03-19T22:47:46.355Z,14.78
2019-03-19T22:50:34.113Z,14.37
2019-03-19T22:53:02.544Z,16.27
2019-03-19T22:55:30.964Z,14.80
2019-03-19T22:57:59.407Z,13.47
2019-03-19T23:00:38.584Z,14.60
2019-03-19T23:03:07.919Z,12.40
2019-03-19T23:05:36.874Z,10.17
2019-03-19T23:08:05.435Z,16.03
2019-03-19T23:10:34.234Z,12.33
2019-03-19T23:13:02.739Z,14.27
2019-03-19T23:15:31.217Z,10.67
2019-03-19T23:17:59.640Z,12.57
2019-03-19T23:20:28.338Z,13.70
2019-03-19T23:22:56.824Z,13.07
2019-03-19T23:25:25.240Z,12.83
2019-03-19T23:27:53.657Z,14.73
2019-03-19T23:30:24.360Z,14.23
2019-03-19T23:32:52.763Z,14.00
2019-03-19T23:35:21.250Z,11.93
2019-03-19T23:37:49.659Z,25.63
2019-03-19T23:40:20.014Z,15.20
2019-03-19T23:42:48.396Z,19.97
2019-03-19T23:45:16.824Z,14.83
2019-03-19T23:47:45.245Z,14.33
2019-03-19T23:50:17.236Z,9.97
2019-03-19T23:52:45.656Z,14.83
2019-03-19T23:55:33.413Z,12.00
2019-03-19T23:58:01.832Z,15.30
